Northway, Alaska
Current Conditions -  °F | °C
As of 4:53 PM on Sunday 23 Nov 2014 (Local Time) from PAOR Reporting Station
Scattered Clouds Scattered Clouds  
Wind Chill: -16°   Ceiling: Unl
Heat Index: -16°   Visibility: 10mi
Dew Point: -22°   Wind: 0mph
Humidity: 74%   Direction: NA
Pressure: 29.66"   Gusts: NA
Location:  62.95°N, 141.93°W
Report Text: PAOR 240153Z 00000KT 10SM SCT090 SCT180 M27/M30 A2966 RMK AO2 SLP129 T12671300
Loading
Personal Weather Stations






























Interactive Weather Map New forecast layout! Learn more

10-Day Weather Forecast

Advertisements
Track Severe Weather on mobile